• Join FlightAware (Why Join?)
  • Login
  • US Flag 
11:40PM EDT


 

Airport Tracker/Info


-or-


 

Live Flight TrackerFlight Track Log ✈ N581SA ✈ 02-May-2013 ✈ KSAC - KFAT

Flight Track Log - Related Links

Times and Time Zones

All times are in EDT time to prevent confusion due to time zone crossing. See the N581SA flight status page for this flight to view local times or setup timezone preferences in your user account.

Time Position Orientation Groundspeed Altitude Reporting Facility
EDT Latitude Longitude Course Direction KTS MPH feet Rate Location/Type
06:47PM 38.5333 -121.5167 159° South 124 143 600  Level Northern Cal TRACON
06:47PM 38.5000 -121.5000 159° South 156 180 1,500 840 Climbing Northern Cal TRACON
06:49PM 38.4667 -121.4500 130° Southeast 155 178 2,400 720 Climbing Northern Cal TRACON
06:50PM 38.4333 -121.4167 142° Southeast 160 184 3,100 600 Climbing Northern Cal TRACON
06:51PM 38.4000 -121.3833 142° Southeast 175 201 3,600 420 Climbing Northern Cal TRACON
06:52PM 38.3667 -121.3333 130° Southeast 175 201 4,000 420 Climbing Northern Cal TRACON
06:53PM 38.3167 -121.3000 152° Southeast 178 205 4,500 480 Climbing Northern Cal TRACON
06:54PM 38.2833 -121.2667 142° Southeast 173 199 5,000 480 Climbing Northern Cal TRACON
06:55PM 38.2500 -121.2167 130° Southeast 175 201 5,500 420 Climbing Northern Cal TRACON
06:56PM 38.2167 -121.1833 142° Southeast 177 204 5,900 480 Climbing Northern Cal TRACON
06:57PM 38.1667 -121.1500 152° Southeast 175 201 6,500 540 Climbing Northern Cal TRACON
06:58PM 38.1333 -121.1000 130° Southeast 171 197 7,000 480 Climbing Northern Cal TRACON
06:58PM 38.1278 -121.0914 129° Southeast 172 198 7,200 360 Climbing Oakland Center
06:59PM 38.0903 -121.0531 141° Southeast 172 198 7,500 180 Climbing Oakland Center
07:00PM 38.0494 -121.0100 140° Southeast 186 214 7,600  Climbing Oakland Center
07:01PM 38.0081 -120.9658 140° Southeast 191 220 7,600  Level Oakland Center
07:02PM 37.9656 -120.9236 142° Southeast 194 223 7,600 -60 Level Oakland Center
07:03PM 37.9233 -120.8789 140° Southeast 197 227 7,500 -60 Descending Oakland Center
07:04PM 37.8806 -120.8358 142° Southeast 197 227 7,500  Level Oakland Center
07:05PM 37.8500 -120.8000 137° Southeast 198 228 7,500  Level Northern Cal TRACON
07:06PM 37.8167 -120.7667 142° Southeast 194 223 7,500  Level Northern Cal TRACON
07:07PM 37.7667 -120.7167 142° Southeast 193 222 7,500  Level Northern Cal TRACON
07:08PM 37.7167 -120.6833 152° Southeast 193 222 7,500  Level Northern Cal TRACON
07:09PM 37.6833 -120.6333 130° Southeast 195 224 7,500  Level Northern Cal TRACON
07:09PM 37.6639 -120.6114 138° Southeast 196 226 7,500  Level Oakland Center
07:10PM 37.6217 -120.5678 141° Southeast 197 227 7,500 -120 Level Oakland Center
07:11PM 37.6000 -120.5500 147° Southeast 195 224 7,400  Descending Northern Cal TRACON
07:12PM 37.5667 -120.5167 142° Southeast 196 226 7,500  Climbing Northern Cal TRACON
07:13PM 37.5167 -120.4667 142° Southeast 198 228 7,400 -60 Descending Northern Cal TRACON
07:14PM 37.4667 -120.4167 142° Southeast 200 230 7,400  Level Northern Cal TRACON
07:15PM 37.4333 -120.3833 142° Southeast 200 230 7,400  Level Northern Cal TRACON
07:15PM 37.4092 -120.3517 134° Southeast 199 229 7,500  Climbing Oakland Center
07:16PM 37.3575 -120.2992 141° Southeast 199 229 7,500  Level Oakland Center
07:17PM 37.3094 -120.2614 148° Southeast 200 230 7,500  Level Oakland Center
07:18PM 37.2675 -120.2156 139° Southeast 200 230 7,500  Level Oakland Center
07:19PM 37.2269 -120.1719 139° Southeast 194 223 7,500 -180 Level Oakland Center
07:20PM 37.1817 -120.1281 142° Southeast 204 235 7,200 -360 Descending Oakland Center
07:21PM 37.1325 -120.0797 142° Southeast 207 238 6,800 -420 Descending Oakland Center
07:22PM 37.0892 -120.0356 141° Southeast 206 237 6,400 -360 Descending Oakland Center
07:23PM 37.0506 -119.9953 140° Southeast 203 234 6,100 -420 Descending Oakland Center
07:25PM 36.9978 -119.9425 141° Southeast 202 232 5,600 -600 Descending Oakland Center
07:26PM 36.9638 -119.9037 138° Southeast  Level FlightAware Approximate
07:27PM 36.9147 -119.8528 138° Southeast 193 222 4,400  Level Oakland Center
07:28PM 36.8828 -119.8053 130° Southeast 177 204 3,600 -840 Descending Oakland Center
07:29PM 36.8428 -119.7600 138° Southeast 177 204 2,700 -840 Descending Oakland Center
07:30PM 36.8086 -119.7219 138° Southeast 170 196 2,000 -540 Descending Oakland Center
07:31PM 36.7750 -119.6858 139° Southeast 161 185 1,600 -660 Descending Oakland Center
07:32PM 36.7694 -119.7075 252° West 131 151 700 -600 Descending Oakland Center
07:33PM 36.7814 -119.7292 305° West 82 94 400 -300 Descending Oakland Center
07:35PM 36.7764 -119.7187 North  Level Estimated